Time;durP1;ratioP1;P1;durP2;ratioP2;P2;SDS_P1;SDS_P2;PMS_P1;PMS_P2;Temp;Humidity;BMP_temperature;BMP_pressure;BME280_temperature;BME280_humidity;BME280_pressure;Samples;Min_cycle;Max_cycle;Signal;HPM_P1;HPM_P2
2021/04/02 00:01:30;;;;;;;23.90;17.17;;;;;;;;;;5037224;28;20166;-59
2021/04/02 00:03:56;;;;;;;22.27;16.95;;;;;;;;;;5054575;28;20127;-59
2021/04/02 00:06:22;;;;;;;24.02;19.27;;;;;;;;;;5037707;28;20037;-59
2021/04/02 00:08:48;;;;;;;32.13;18.38;;;;;;;;;;5054800;28;20040;-59
2021/04/02 00:11:14;;;;;;;31.60;19.50;;;;;;;;;;5055149;28;20032;-59
2021/04/02 00:13:44;;;;;;;23.67;18.48;;;;;;;;;;5055121;28;20021;-59
2021/04/02 00:16:11;;;;;;;24.95;18.65;;;;;;;;;;5054773;28;20524;-59
2021/04/02 00:18:37;;;;;;;24.10;18.40;;;;;;;;;;5036753;28;20029;-59
2021/04/02 00:21:05;;;;;;;26.55;19.40;;;;;;;;;;5054850;28;20090;-59
2021/04/02 00:23:31;;;;;;;27.60;18.13;;;;;;;;;;5037156;28;20017;-59
2021/04/02 00:25:57;;;;;;;26.13;18.63;;;;;;;;;;5036884;28;20067;-59
2021/04/02 00:28:23;;;;;;;33.72;19.85;;;;;;;;;;5054595;28;20060;-59
2021/04/02 00:30:50;;;;;;;29.52;19.80;;;;;;;;;;5054599;28;20018;-59
2021/04/02 00:33:18;;;;;;;23.40;20.60;;;;;;;;;;5037357;28;20032;-59
2021/04/02 00:35:44;;;;;;;24.95;19.50;;;;;;;;;;5054429;28;20083;-59
2021/04/02 00:38:10;;;;;;;24.13;19.88;;;;;;;;;;5054667;28;20513;-59
2021/04/02 00:40:39;;;;;;;30.88;20.92;;;;;;;;;;5054284;28;20115;-59
2021/04/02 00:43:05;;;;;;;28.80;19.08;;;;;;;;;;5054627;28;20025;-59
2021/04/02 00:45:31;;;;;;;27.58;18.67;;;;;;;;;;5054022;28;20462;-59
2021/04/02 00:47:57;;;;;;;33.15;22.35;;;;;;;;;;5054183;28;20266;-59
2021/04/02 00:50:35;;;;;;;29.05;20.67;;;;;;;;;;5054555;28;20021;-59
2021/04/02 00:53:01;;;;;;;22.30;19.00;;;;;;;;;;5036751;28;20078;-59
2021/04/02 00:55:27;;;;;;;27.83;20.73;;;;;;;;;;5035813;28;20025;-59
2021/04/02 00:57:53;;;;;;;24.55;20.17;;;;;;;;;;5053674;28;20036;-59
2021/04/02 01:00:19;;;;;;;30.90;21.83;;;;;;;;;;5053796;28;20348;-59
2021/04/02 01:02:48;;;;;;;25.25;20.15;;;;;;;;;;5036801;28;20340;-59
2021/04/02 01:05:16;;;;;;;26.63;21.67;;;;;;;;;;5053348;28;20403;-59
2021/04/02 01:07:42;;;;;;;31.25;20.95;;;;;;;;;;5054056;28;20370;-59
2021/04/02 01:10:13;;;;;;;31.75;21.77;;;;;;;;;;5036563;28;20174;-58
2021/04/02 01:12:41;;;;;;;27.20;23.13;;;;;;;;;;5053845;28;20025;-59
2021/04/02 01:15:10;;;;;;;26.88;19.67;;;;;;;;;;5035724;28;20036;-59
2021/04/02 01:17:37;;;;;;;30.50;22.38;;;;;;;;;;5053672;28;20024;-59
2021/04/02 01:20:05;;;;;;;35.58;22.63;;;;;;;;;;5053495;28;20021;-59
2021/04/02 01:22:31;;;;;;;24.33;18.60;;;;;;;;;;5036166;28;20021;-59
2021/04/02 01:25:17;;;;;;;23.83;18.35;;;;;;;;;;5035992;28;20029;-59
2021/04/02 01:27:55;;;;;;;24.02;18.95;;;;;;;;;;5053493;28;20029;-59
2021/04/02 01:30:22;;;;;;;21.58;16.88;;;;;;;;;;5053354;28;20017;-59
2021/04/02 01:32:49;;;;;;;22.15;15.63;;;;;;;;;;5053837;28;20021;-59
2021/04/02 01:35:16;;;;;;;21.60;15.55;;;;;;;;;;5053306;28;20021;-59
2021/04/02 01:37:53;;;;;;;20.33;16.33;;;;;;;;;;5053581;28;20078;-59
2021/04/02 01:40:20;;;;;;;22.20;12.38;;;;;;;;;;5053691;28;20029;-59
2021/04/02 01:42:47;;;;;;;18.25;12.73;;;;;;;;;;5035183;28;20025;-59
2021/04/02 01:45:14;;;;;;;16.45;12.77;;;;;;;;;;5034923;28;20021;-59
2021/04/02 01:47:41;;;;;;;21.20;13.65;;;;;;;;;;5053613;28;20024;-58
2021/04/02 01:50:09;;;;;;;16.00;12.18;;;;;;;;;;5053538;28;20112;-58
2021/04/02 01:52:35;;;;;;;16.42;13.23;;;;;;;;;;5035452;28;20418;-59
2021/04/02 01:55:01;;;;;;;23.40;13.68;;;;;;;;;;5035867;28;20063;-59
2021/04/02 01:57:28;;;;;;;15.80;12.35;;;;;;;;;;5053559;28;20120;-59
2021/04/02 01:59:55;;;;;;;16.30;12.57;;;;;;;;;;5035829;28;20031;-59
2021/04/02 02:02:25;;;;;;;15.75;12.05;;;;;;;;;;5053699;28;20483;-59
2021/04/02 02:04:51;;;;;;;14.60;12.60;;;;;;;;;;5034705;28;20487;-59
2021/04/02 02:07:18;;;;;;;22.70;12.77;;;;;;;;;;5034745;28;20087;-59
2021/04/02 02:09:47;;;;;;;17.25;12.75;;;;;;;;;;5054159;28;20383;-59
2021/04/02 02:12:16;;;;;;;15.57;11.88;;;;;;;;;;5057163;28;20455;-58
2021/04/02 02:14:45;;;;;;;16.52;11.38;;;;;;;;;;5057388;28;20102;-58
2021/04/02 02:17:13;;;;;;;13.95;11.20;;;;;;;;;;5057100;28;20102;-59
2021/04/02 02:19:41;;;;;;;14.80;11.27;;;;;;;;;;5057045;28;20037;-58
2021/04/02 02:22:10;;;;;;;14.77;10.68;;;;;;;;;;5022282;28;20045;-58
2021/04/02 02:24:37;;;;;;;17.13;11.45;;;;;;;;;;5056965;28;20111;-59
2021/04/02 02:27:05;;;;;;;14.38;11.20;;;;;;;;;;5056802;28;20033;-59
2021/04/02 02:29:31;;;;;;;15.18;10.63;;;;;;;;;;5056812;28;20028;-59
2021/04/02 02:31:57;;;;;;;17.13;9.05;;;;;;;;;;5056503;28;20553;-59
2021/04/02 02:34:23;;;;;;;12.77;10.45;;;;;;;;;;5056762;28;20028;-58
2021/04/02 02:36:55;;;;;;;11.73;9.57;;;;;;;;;;5056708;28;20025;-59
2021/04/02 02:39:21;;;;;;;14.40;10.38;;;;;;;;;;5056615;28;20028;-58
2021/04/02 02:41:50;;;;;;;13.98;8.98;;;;;;;;;;5056521;28;20032;-58
2021/04/02 02:44:16;;;;;;;14.85;8.30;;;;;;;;;;5056763;28;20131;-58
2021/04/02 02:46:45;;;;;;;13.85;9.38;;;;;;;;;;5056145;28;20029;-58
2021/04/02 02:49:15;;;;;;;14.65;8.27;;;;;;;;;;5056293;28;20496;-58
2021/04/02 02:51:42;;;;;;;10.13;8.25;;;;;;;;;;5038581;28;20029;-58
2021/04/02 02:54:13;;;;;;;11.60;7.95;;;;;;;;;;5049581;28;20041;-59
2021/04/02 02:56:43;;;;;;;9.48;6.88;;;;;;;;;;5038169;28;20029;-58
2021/04/02 02:59:12;;;;;;;10.48;8.32;;;;;;;;;;5038894;28;20035;-58
2021/04/02 03:01:38;;;;;;;12.60;7.93;;;;;;;;;;5056251;28;20028;-58
2021/04/02 03:04:08;;;;;;;12.57;7.97;;;;;;;;;;5056033;28;20044;-59
2021/04/02 03:06:53;;;;;;;11.48;7.45;;;;;;;;;;5037918;28;20035;-58
2021/04/02 03:09:21;;;;;;;9.35;7.60;;;;;;;;;;5038034;28;20033;-58
2021/04/02 03:11:48;;;;;;;10.75;8.00;;;;;;;;;;5055974;28;20037;-59
2021/04/02 03:14:24;;;;;;;10.07;7.75;;;;;;;;;;5056380;28;20021;-59
2021/04/02 03:16:56;;;;;;;9.00;6.32;;;;;;;;;;5056117;28;20516;-58
2021/04/02 03:19:32;;;;;;;6.72;6.03;;;;;;;;;;5055992;28;20084;-59
2021/04/02 03:22:01;;;;;;;9.35;6.05;;;;;;;;;;5037282;28;20463;-58
2021/04/02 03:24:27;;;;;;;8.88;6.03;;;;;;;;;;5056617;28;20037;-58
2021/04/02 03:26:58;;;;;;;11.82;5.78;;;;;;;;;;5055429;28;20081;-59
2021/04/02 03:29:25;;;;;;;7.22;5.85;;;;;;;;;;5037573;28;20028;-59
2021/04/02 03:32:00;;;;;;;7.75;5.35;;;;;;;;;;5037919;28;20079;-58
2021/04/02 03:34:30;;;;;;;10.15;5.95;;;;;;;;;;5037691;28;20025;-58
2021/04/02 03:36:58;;;;;;;9.45;6.05;;;;;;;;;;5055777;28;20047;-58
2021/04/02 03:39:29;;;;;;;9.13;7.60;;;;;;;;;;5037791;28;20141;-58
2021/04/02 03:42:07;;;;;;;10.65;7.38;;;;;;;;;;5022258;28;20037;-58
2021/04/02 03:44:36;;;;;;;12.05;6.72;;;;;;;;;;5037594;28;20436;-59
2021/04/02 03:47:06;;;;;;;8.95;6.70;;;;;;;;;;5037414;28;20475;-58
2021/04/02 03:49:35;;;;;;;9.80;6.57;;;;;;;;;;5037992;28;20033;-58
2021/04/02 03:52:16;;;;;;;8.40;5.70;;;;;;;;;;5054250;28;20041;-58
2021/04/02 03:54:52;;;;;;;7.78;5.32;;;;;;;;;;5055562;28;20453;-58
2021/04/02 03:57:25;;;;;;;9.65;6.55;;;;;;;;;;5055920;28;20401;-58
2021/04/02 04:00:03;;;;;;;8.48;5.15;;;;;;;;;;5037063;28;20126;-58
2021/04/02 04:02:43;;;;;;;5.90;4.13;;;;;;;;;;5055350;28;20041;-58
2021/04/02 04:05:14;;;;;;;10.70;5.75;;;;;;;;;;5037375;28;20053;-58
2021/04/02 04:07:44;;;;;;;;;;;;;;;;;;5038958;28;20083;-58
2021/04/02 04:10:17;;;;;;;9.05;5.43;;;;;;;;;;5054898;28;19905;-58
2021/04/02 04:12:53;;;;;;;11.73;5.65;;;;;;;;;;5036951;28;20078;-58
2021/04/02 04:15:21;;;;;;;5.40;4.28;;;;;;;;;;5037192;28;20120;-57
2021/04/02 04:17:57;;;;;;;7.40;4.93;;;;;;;;;;5055533;28;20048;-58
2021/04/02 04:20:25;;;;;;;6.78;4.55;;;;;;;;;;5056009;28;20025;-58
2021/04/02 04:23:06;;;;;;;7.90;4.85;;;;;;;;;;5055213;28;20348;-58
2021/04/02 04:25:41;;;;;;;6.82;4.75;;;;;;;;;;5055140;28;20029;-58
2021/04/02 04:28:17;;;;;;;6.15;4.13;;;;;;;;;;5055371;28;20033;-58
2021/04/02 04:30:50;;;;;;;8.13;3.63;;;;;;;;;;5054815;28;20025;-57
2021/04/02 04:33:51;;;;;;;6.82;3.88;;;;;;;;;;5055251;28;20021;-58
2021/04/02 04:36:27;;;;;;;6.68;3.28;;;;;;;;;;5054302;28;20052;-58
2021/04/02 04:39:00;;;;;;;5.78;3.50;;;;;;;;;;5054719;28;20324;-58
2021/04/02 04:41:35;;;;;;;8.20;2.83;;;;;;;;;;5036361;28;20269;-58
2021/04/02 04:44:07;;;;;;;8.07;3.90;;;;;;;;;;5036880;28;20074;-58
2021/04/02 04:46:39;;;;;;;5.70;3.28;;;;;;;;;;5036234;28;20143;-58
2021/04/02 04:49:24;;;;;;;;;;;;;;;;;;;;;
2021/04/02 04:51:51;;;;;;;5.20;2.97;;;;;;;;;;5051141;28;20047;-58
2021/04/02 04:54:34;;;;;;;7.03;3.58;;;;;;;;;;5053988;28;20083;-58
2021/04/02 04:57:11;;;;;;;4.53;2.63;;;;;;;;;;5019699;28;20127;-58
2021/04/02 04:59:48;;;;;;;4.35;2.90;;;;;;;;;;5054241;28;20079;-58
2021/04/02 05:02:35;;;;;;;5.95;3.30;;;;;;;;;;5036483;28;20055;-58
2021/04/02 05:05:22;;;;;;;6.22;3.22;;;;;;;;;;5035416;28;20052;-58
2021/04/02 05:08:17;;;;;;;6.68;3.75;;;;;;;;;;5036264;28;20368;-58
2021/04/02 05:11:01;;;;;;;3.13;2.45;;;;;;;;;;5036095;28;20065;-58
2021/04/02 05:13:32;;;;;;;11.38;3.15;;;;;;;;;;5036253;28;20406;-58
2021/04/02 05:16:05;;;;;;;6.28;2.45;;;;;;;;;;5037208;28;20035;-58
2021/04/02 05:18:46;;;;;;;4.72;2.47;;;;;;;;;;5053375;28;20049;-57
2021/04/02 05:21:25;;;;;;;3.22;2.40;;;;;;;;;;5053912;28;20032;-58
2021/04/02 05:23:55;;;;;;;4.88;2.33;;;;;;;;;;5035843;28;20075;-58
2021/04/02 05:26:32;;;;;;;5.25;2.42;;;;;;;;;;5054285;28;20047;-58
2021/04/02 05:29:01;;;;;;;6.80;3.00;;;;;;;;;;5035937;28;20036;-58
2021/04/02 05:31:33;;;;;;;4.10;3.05;;;;;;;;;;5035971;28;20025;-58
2021/04/02 05:34:08;;;;;;;3.60;1.83;;;;;;;;;;5036525;28;20021;-58
2021/04/02 05:36:53;;;;;;;8.77;3.05;;;;;;;;;;5054121;28;20025;-58
2021/04/02 05:39:22;;;;;;;5.45;2.33;;;;;;;;;;5053826;28;20367;-58
2021/04/02 05:42:02;;;;;;;5.63;2.95;;;;;;;;;;5019109;28;20024;-57
2021/04/02 05:44:41;;;;;;;4.07;2.80;;;;;;;;;;5052935;28;20025;-57
2021/04/02 05:47:17;;;;;;;8.00;2.67;;;;;;;;;;5053246;28;20055;-58
2021/04/02 05:49:49;;;;;;;6.60;2.63;;;;;;;;;;5019834;28;20028;-58
2021/04/02 05:52:22;;;;;;;5.20;2.65;;;;;;;;;;5053771;28;20028;-58
2021/04/02 05:55:15;;;;;;;3.70;2.22;;;;;;;;;;5019792;28;20032;-58
2021/04/02 05:58:10;;;;;;;5.50;2.75;;;;;;;;;;5036053;28;20032;-58
2021/04/02 06:00:39;;;;;;;5.50;2.15;;;;;;;;;;5045134;28;20522;-58
2021/04/02 06:03:21;;;;;;;5.50;2.47;;;;;;;;;;5052993;28;20112;-58
2021/04/02 06:06:08;;;;;;;3.95;2.65;;;;;;;;;;5034367;28;20455;-59
2021/04/02 06:08:34;;;;;;;5.40;2.88;;;;;;;;;;5053915;28;20087;-59
2021/04/02 06:11:08;;;;;;;6.28;2.75;;;;;;;;;;5052658;28;20029;-59
2021/04/02 06:13:38;;;;;;;4.13;3.00;;;;;;;;;;5053191;28;20041;-59
2021/04/02 06:16:07;;;;;;;5.05;2.67;;;;;;;;;;5034824;28;20394;-59
2021/04/02 06:19:04;;;;;;;3.55;2.67;;;;;;;;;;5052871;28;20021;-59
2021/04/02 06:21:42;;;;;;;3.10;2.22;;;;;;;;;;5021718;28;20037;-58
2021/04/02 06:24:12;;;;;;;3.70;2.88;;;;;;;;;;5051064;28;20033;-59
2021/04/02 06:26:57;;;;;;;4.68;3.08;;;;;;;;;;5052629;28;20041;-59
2021/04/02 06:29:44;;;;;;;4.60;2.88;;;;;;;;;;5052608;28;20025;-58
2021/04/02 06:32:44;;;;;;;3.95;2.88;;;;;;;;;;5034053;28;20135;-59
2021/04/02 06:35:14;;;;;;;8.50;3.60;;;;;;;;;;5035504;28;20116;-58
2021/04/02 06:37:49;;;;;;;4.38;3.22;;;;;;;;;;5052270;28;20124;-58
2021/04/02 06:40:16;;;;;;;5.40;3.67;;;;;;;;;;5052944;28;20112;-59
2021/04/02 06:42:45;;;;;;;5.35;3.50;;;;;;;;;;5053047;28;20086;-58
2021/04/02 06:45:31;;;;;;;4.53;3.30;;;;;;;;;;5018400;28;20037;-58
2021/04/02 06:48:19;;;;;;;7.55;3.47;;;;;;;;;;5035981;28;20510;-58
2021/04/02 06:50:53;;;;;;;5.20;2.97;;;;;;;;;;5052739;28;20367;-59
2021/04/02 06:53:25;;;;;;;5.30;3.65;;;;;;;;;;5052362;28;20475;-58
2021/04/02 06:56:02;;;;;;;4.00;3.08;;;;;;;;;;5018164;28;20033;-58
2021/04/02 06:58:32;;;;;;;4.57;3.78;;;;;;;;;;5037750;28;20037;-58
2021/04/02 07:01:03;;;;;;;6.10;4.20;;;;;;;;;;5056909;28;20068;-59
2021/04/02 07:03:33;;;;;;;8.00;4.30;;;;;;;;;;5039001;28;20029;-59
2021/04/02 07:06:12;;;;;;;7.43;4.60;;;;;;;;;;5055911;28;20055;-58
2021/04/02 07:08:53;;;;;;;8.13;4.03;;;;;;;;;;5055733;28;20036;-58
2021/04/02 07:11:33;;;;;;;5.68;3.65;;;;;;;;;;5056504;28;20017;-58
2021/04/02 07:14:14;;;;;;;6.47;4.57;;;;;;;;;;5056472;28;20037;-58
2021/04/02 07:16:46;;;;;;;5.53;4.00;;;;;;;;;;5056595;28;20029;-58
2021/04/02 07:19:16;;;;;;;6.85;4.20;;;;;;;;;;5056380;28;20029;-58
2021/04/02 07:21:43;;;;;;;4.90;4.07;;;;;;;;;;5038782;28;20025;-58
2021/04/02 07:24:19;;;;;;;4.97;3.55;;;;;;;;;;5056509;28;20363;-57
2021/04/02 07:26:51;;;;;;;6.28;4.03;;;;;;;;;;5038125;28;20044;-58
2021/04/02 07:29:24;;;;;;;5.03;4.03;;;;;;;;;;5038290;28;20041;-58
2021/04/02 07:32:15;;;;;;;8.85;4.65;;;;;;;;;;5022192;28;20111;-58
2021/04/02 07:34:46;;;;;;;7.75;4.82;;;;;;;;;;5054893;28;20060;-58
2021/04/02 07:37:22;;;;;;;6.95;5.57;;;;;;;;;;5056099;28;20025;-58
2021/04/02 07:39:49;;;;;;;7.45;4.90;;;;;;;;;;5055229;28;20045;-58
2021/04/02 07:42:20;;;;;;;8.98;4.57;;;;;;;;;;5038644;28;20037;-58
2021/04/02 07:44:57;;;;;;;9.68;5.28;;;;;;;;;;5037373;28;20032;-58
2021/04/02 07:50:41;;;;;;;8.88;4.38;;;;;;;;;;5055094;28;20478;-58
2021/04/02 07:56:14;;;;;;;8.23;5.57;;;;;;;;;;5055312;28;20448;-58
2021/04/02 07:59:09;;;;;;;9.10;5.32;;;;;;;;;;5056518;28;20027;-58
2021/04/02 08:02:13;;;;;;;7.53;5.28;;;;;;;;;;5038044;28;20029;-58
2021/04/02 08:05:02;;;;;;;6.72;5.75;;;;;;;;;;5035992;28;20049;-58
2021/04/02 08:07:38;;;;;;;8.75;4.90;;;;;;;;;;5054547;28;20033;-59
2021/04/02 08:10:36;;;;;;;7.07;5.82;;;;;;;;;;5054465;28;20067;-59
2021/04/02 08:19:24;;;;;;;9.68;5.80;;;;;;;;;;5046620;28;20037;-59
2021/04/02 08:21:56;;;;;;;6.40;4.93;;;;;;;;;;5038268;28;20039;-59
2021/04/02 08:24:24;;;;;;;7.50;6.30;;;;;;;;;;5020708;28;20025;-59
2021/04/02 08:26:51;;;;;;;9.65;5.95;;;;;;;;;;5036977;28;20036;-59
2021/04/02 08:29:22;;;;;;;8.80;5.97;;;;;;;;;;5036884;28;20031;-59
2021/04/02 08:31:55;;;;;;;7.32;5.95;;;;;;;;;;5055386;28;20033;-58
2021/04/02 08:34:39;;;;;;;6.80;5.75;;;;;;;;;;5035512;28;20022;-59
2021/04/02 08:37:14;;;;;;;10.82;6.85;;;;;;;;;;5036253;28;20067;-59
2021/04/02 08:39:55;;;;;;;7.30;5.57;;;;;;;;;;5037546;28;20447;-59
2021/04/02 08:42:39;;;;;;;7.63;5.45;;;;;;;;;;5054495;28;20036;-59
2021/04/02 08:45:09;;;;;;;11.02;6.45;;;;;;;;;;5054405;28;20405;-59
2021/04/02 08:47:49;;;;;;;7.82;6.05;;;;;;;;;;5054714;28;20033;-59
2021/04/02 08:50:30;;;;;;;9.80;6.68;;;;;;;;;;5050886;28;20067;-59
2021/04/02 08:53:30;;;;;;;12.70;6.95;;;;;;;;;;5054513;28;20460;-59
2021/04/02 08:56:02;;;;;;;9.82;6.70;;;;;;;;;;5020794;28;20509;-59
2021/04/02 08:58:55;;;;;;;8.80;6.72;;;;;;;;;;5036963;28;20033;-59
2021/04/02 09:01:31;;;;;;;11.45;6.35;;;;;;;;;;5036140;28;20059;-59
2021/04/02 09:04:07;;;;;;;11.45;7.00;;;;;;;;;;5036162;28;20048;-60
2021/04/02 09:06:39;;;;;;;8.27;6.95;;;;;;;;;;5035829;28;20455;-60
2021/04/02 09:09:33;;;;;;;8.82;5.80;;;;;;;;;;5054004;28;20032;-59
2021/04/02 09:12:25;;;;;;;6.85;6.15;;;;;;;;;;5054300;28;20021;-59
2021/04/02 09:15:07;;;;;;;;;;;;;;;;;;;;;
2021/04/02 09:17:39;;;;;;;7.55;6.03;;;;;;;;;;5049103;28;20033;-60
2021/04/02 09:20:07;;;;;;;10.38;6.65;;;;;;;;;;5053297;28;20409;-59
2021/04/02 09:22:35;;;;;;;12.35;6.15;;;;;;;;;;5036458;28;20028;-59
2021/04/02 09:25:02;;;;;;;11.88;6.82;;;;;;;;;;5035956;28;20463;-58
2021/04/02 09:27:38;;;;;;;7.07;5.93;;;;;;;;;;5053580;28;20037;-60
2021/04/02 09:33:31;;;;;;;9.55;6.85;;;;;;;;;;4981187;28;20065;-60
2021/04/02 09:36:06;;;;;;;9.68;7.00;;;;;;;;;;5053352;28;20065;-60
2021/04/02 09:38:32;;;;;;;10.35;7.20;;;;;;;;;;5053325;28;20029;-60
2021/04/02 09:41:00;;;;;;;7.38;6.68;;;;;;;;;;5035179;28;20021;-60
2021/04/02 09:43:26;;;;;;;10.57;6.93;;;;;;;;;;5035662;28;20024;-60
2021/04/02 09:46:04;;;;;;;8.35;6.05;;;;;;;;;;5053678;28;20108;-59
2021/04/02 09:48:54;;;;;;;7.72;6.45;;;;;;;;;;5020008;28;20029;-59
2021/04/02 09:51:33;;;;;;;9.30;6.68;;;;;;;;;;5035247;28;20161;-59
2021/04/02 09:54:10;;;;;;;8.05;5.93;;;;;;;;;;5035175;28;20075;-60
2021/04/02 09:56:39;;;;;;;7.50;6.35;;;;;;;;;;5052881;28;20029;-59
2021/04/02 09:59:09;;;;;;;8.95;7.05;;;;;;;;;;5052908;28;20075;-59
2021/04/02 10:01:41;;;;;;;7.20;5.85;;;;;;;;;;5035285;28;20073;-59
2021/04/02 10:04:11;;;;;;;6.75;5.93;;;;;;;;;;5019053;28;20032;-60
2021/04/02 10:06:39;;;;;;;9.77;6.43;;;;;;;;;;5052611;28;20506;-59
2021/04/02 10:09:18;;;;;;;11.30;7.22;;;;;;;;;;5053597;28;20107;-59
2021/04/02 10:11:54;;;;;;;7.45;6.47;;;;;;;;;;5018459;28;20142;-60
2021/04/02 10:14:34;;;;;;;10.32;5.95;;;;;;;;;;5053210;28;20029;-59
2021/04/02 10:17:09;;;;;;;7.15;6.15;;;;;;;;;;5052427;28;20152;-59
2021/04/02 10:19:35;;;;;;;7.38;5.63;;;;;;;;;;5053287;28;20060;-60
2021/04/02 10:22:15;;;;;;;8.35;6.30;;;;;;;;;;5034768;28;20021;-58
2021/04/02 10:24:42;;;;;;;8.85;6.32;;;;;;;;;;5053735;28;20075;-58
2021/04/02 10:27:18;;;;;;;;;;;;;;;;;;;;;
2021/04/02 10:29:50;;;;;;;8.82;5.68;;;;;;;;;;5036483;28;20045;-59
2021/04/02 10:32:16;;;;;;;6.13;5.30;;;;;;;;;;5037803;28;20056;-60
2021/04/02 10:34:42;;;;;;;8.65;6.18;;;;;;;;;;5056730;28;20098;-60
2021/04/02 10:37:43;;;;;;;9.10;6.10;;;;;;;;;;5022425;28;20462;-59
2021/04/02 10:40:15;;;;;;;7.32;5.07;;;;;;;;;;5038661;28;20031;-59
2021/04/02 10:42:44;;;;;;;9.57;4.55;;;;;;;;;;5038711;28;20029;-60
2021/04/02 10:45:16;;;;;;;7.57;6.00;;;;;;;;;;5038593;28;20458;-60
2021/04/02 10:47:44;;;;;;;7.78;6.72;;;;;;;;;;5039330;28;20029;-60
2021/04/02 10:50:17;;;;;;;8.75;6.28;;;;;;;;;;5056468;28;20041;-59
2021/04/02 10:55:53;;;;;;;8.80;6.18;;;;;;;;;;5056274;28;20386;-59
2021/04/02 10:58:22;;;;;;;7.95;6.57;;;;;;;;;;5056780;28;20025;-60
2021/04/02 11:01:05;;;;;;;9.85;6.20;;;;;;;;;;5056315;28;20029;-60
2021/04/02 11:03:36;;;;;;;8.70;6.63;;;;;;;;;;5056594;28;20024;-59
2021/04/02 11:06:05;;;;;;;12.23;6.90;;;;;;;;;;5055766;28;20110;-60
2021/04/02 11:08:34;;;;;;;7.85;6.07;;;;;;;;;;5056215;28;20095;-60
2021/04/02 11:11:03;;;;;;;8.93;7.10;;;;;;;;;;5055176;28;20039;-59
2021/04/02 11:13:33;;;;;;;8.70;6.93;;;;;;;;;;5056971;28;20036;-59
2021/04/02 11:16:02;;;;;;;7.93;6.30;;;;;;;;;;5056061;28;20479;-59
2021/04/02 11:18:41;;;;;;;8.73;6.80;;;;;;;;;;5056105;28;20025;-59
2021/04/02 11:21:09;;;;;;;7.80;5.82;;;;;;;;;;5038114;28;20267;-59
2021/04/02 11:23:41;;;;;;;7.15;5.85;;;;;;;;;;5038153;28;20123;-59
2021/04/02 11:26:19;;;;;;;7.38;5.85;;;;;;;;;;5055950;28;20386;-59
2021/04/02 11:28:54;;;;;;;6.85;5.78;;;;;;;;;;5038446;28;20040;-59
2021/04/02 11:31:35;;;;;;;8.43;6.47;;;;;;;;;;5038005;28;20034;-59
2021/04/02 11:34:04;;;;;;;7.57;5.97;;;;;;;;;;5055746;28;20103;-59
2021/04/02 11:36:36;;;;;;;8.45;6.85;;;;;;;;;;5054958;28;20052;-59
2021/04/02 11:39:10;;;;;;;8.95;6.93;;;;;;;;;;5056284;28;20394;-59
2021/04/02 11:41:43;;;;;;;7.75;6.57;;;;;;;;;;5055445;28;20121;-59
2021/04/02 11:44:09;;;;;;;7.20;5.88;;;;;;;;;;5054382;28;20059;-59
2021/04/02 11:46:35;;;;;;;9.90;6.15;;;;;;;;;;5055405;28;20041;-59
2021/04/02 11:49:07;;;;;;;6.55;5.57;;;;;;;;;;5037395;28;20124;-59
2021/04/02 11:54:24;;;;;;;5.78;5.13;;;;;;;;;;5022734;28;20025;-59
2021/04/02 11:56:53;;;;;;;8.23;5.80;;;;;;;;;;5055247;28;20028;-59
2021/04/02 11:59:28;;;;;;;6.80;5.82;;;;;;;;;;5036974;28;20025;-59
2021/04/02 12:01:55;;;;;;;7.22;4.63;;;;;;;;;;5055410;28;20036;-61
2021/04/02 12:04:28;;;;;;;5.13;4.60;;;;;;;;;;5037605;28;20024;-59
2021/04/02 12:07:15;;;;;;;9.10;5.15;;;;;;;;;;5036881;28;20048;-59
2021/04/02 12:09:45;;;;;;;6.78;5.18;;;;;;;;;;5055203;28;20036;-58
2021/04/02 12:12:14;;;;;;;8.05;4.38;;;;;;;;;;5036743;28;20366;-58
2021/04/02 12:14:40;;;;;;;6.50;4.20;;;;;;;;;;5054701;28;20025;-59
2021/04/02 12:17:06;;;;;;;4.60;3.85;;;;;;;;;;5054716;28;20754;-59
2021/04/02 12:19:35;;;;;;;6.07;4.97;;;;;;;;;;5036934;28;20031;-59
2021/04/02 12:22:07;;;;;;;5.70;4.72;;;;;;;;;;5054402;28;20422;-58
2021/04/02 12:24:33;;;;;;;5.90;4.53;;;;;;;;;;5036502;28;20082;-59
2021/04/02 12:27:05;;;;;;;5.38;3.53;;;;;;;;;;5055003;28;20139;-59
2021/04/02 12:29:32;;;;;;;5.43;4.57;;;;;;;;;;5036226;28;20367;-58
2021/04/02 12:32:01;;;;;;;6.40;3.90;;;;;;;;;;5054310;28;20413;-59
2021/04/02 12:34:36;;;;;;;5.38;4.20;;;;;;;;;;5054721;28;20033;-59
2021/04/02 12:37:07;;;;;;;4.93;4.43;;;;;;;;;;5036664;28;20029;-59
2021/04/02 12:39:36;;;;;;;;;;;;;;;;;;5054862;28;20048;-59
2021/04/02 12:42:06;;;;;;;5.70;4.68;;;;;;;;;;5035920;28;19911;-59
2021/04/02 12:44:37;;;;;;;8.25;3.88;;;;;;;;;;5054626;28;20028;-58
2021/04/02 12:47:03;;;;;;;;;;;;;;;;;;5053480;28;20045;-58
2021/04/02 12:49:35;;;;;;;5.50;3.95;;;;;;;;;;5054817;28;19908;-58
2021/04/02 12:52:05;;;;;;;6.53;4.22;;;;;;;;;;5036136;28;20028;-59
2021/04/02 12:54:31;;;;;;;4.75;3.78;;;;;;;;;;5035219;28;20025;-58
2021/04/02 12:56:57;;;;;;;4.55;3.63;;;;;;;;;;5054405;28;20029;-58
2021/04/02 12:59:23;;;;;;;5.25;4.15;;;;;;;;;;5035945;28;20039;-59
2021/04/02 13:01:51;;;;;;;6.50;4.78;;;;;;;;;;5035300;28;20467;-59
2021/04/02 13:04:19;;;;;;;5.47;4.38;;;;;;;;;;5035853;28;20138;-59
2021/04/02 13:06:49;;;;;;;6.57;3.90;;;;;;;;;;5035715;28;20060;-59
2021/04/02 13:09:18;;;;;;;4.68;3.60;;;;;;;;;;5036795;28;20029;-58
2021/04/02 13:11:47;;;;;;;5.18;3.72;;;;;;;;;;5053565;28;20079;-58
2021/04/02 13:14:16;;;;;;;4.90;3.40;;;;;;;;;;5053366;28;20033;-58
2021/04/02 13:16:47;;;;;;;5.70;4.43;;;;;;;;;;5053594;28;20406;-59
2021/04/02 13:19:14;;;;;;;6.40;3.85;;;;;;;;;;5035828;28;20029;-59
2021/04/02 13:21:40;;;;;;;5.10;3.38;;;;;;;;;;5053400;28;20056;-59
2021/04/02 13:24:18;;;;;;;3.95;2.92;;;;;;;;;;5035187;28;20041;-59
2021/04/02 13:26:45;;;;;;;6.10;3.15;;;;;;;;;;5053806;28;20403;-59
2021/04/02 13:29:11;;;;;;;5.22;3.65;;;;;;;;;;5035218;28;20403;-59
2021/04/02 13:31:37;;;;;;;5.00;3.90;;;;;;;;;;5035331;28;20116;-59
2021/04/02 13:34:05;;;;;;;7.45;3.72;;;;;;;;;;5035818;28;20036;-59
2021/04/02 13:36:40;;;;;;;4.30;3.58;;;;;;;;;;5034909;28;20025;-59
2021/04/02 13:39:10;;;;;;;3.45;2.97;;;;;;;;;;5034822;28;20028;-59
2021/04/02 13:41:36;;;;;;;9.52;3.40;;;;;;;;;;5035912;28;20044;-59
2021/04/02 13:44:14;;;;;;;4.78;3.33;;;;;;;;;;5053396;28;20471;-59
2021/04/02 13:46:40;;;;;;;3.47;3.10;;;;;;;;;;5035375;28;20049;-59
2021/04/02 13:49:10;;;;;;;5.63;3.25;;;;;;;;;;5034806;28;20052;-59
2021/04/02 13:51:36;;;;;;;4.22;3.13;;;;;;;;;;5053516;28;20025;-59
2021/04/02 13:54:02;;;;;;;4.72;3.80;;;;;;;;;;5035282;28;20025;-59
2021/04/02 13:56:37;;;;;;;4.60;3.45;;;;;;;;;;5052764;28;20025;-58
2021/04/02 13:59:04;;;;;;;4.18;3.50;;;;;;;;;;5035700;28;20056;-59
2021/04/02 14:01:31;;;;;;;3.72;2.80;;;;;;;;;;5052931;28;20029;-59
2021/04/02 14:04:02;;;;;;;4.95;3.10;;;;;;;;;;5035195;28;20032;-59
2021/04/02 14:06:28;;;;;;;4.45;3.13;;;;;;;;;;5034162;28;20045;-58
2021/04/02 14:08:55;;;;;;;8.40;3.78;;;;;;;;;;5035277;28;20024;-58
2021/04/02 14:11:27;;;;;;;4.82;3.40;;;;;;;;;;5034716;28;20029;-58
2021/04/02 14:13:55;;;;;;;4.55;3.30;;;;;;;;;;5052235;28;20482;-58
2021/04/02 14:16:24;;;;;;;4.00;3.10;;;;;;;;;;5052484;28;20163;-58
2021/04/02 14:18:51;;;;;;;4.88;2.70;;;;;;;;;;5052244;28;20108;-58
2021/04/02 14:21:25;;;;;;;4.28;2.80;;;;;;;;;;5034578;28;20040;-58
2021/04/02 14:23:57;;;;;;;4.80;3.67;;;;;;;;;;5052827;28;20021;-58
2021/04/02 14:26:23;;;;;;;5.60;3.72;;;;;;;;;;5034329;28;20369;-58
2021/04/02 14:28:52;;;;;;;3.63;2.72;;;;;;;;;;5052365;28;20021;-58
2021/04/02 14:31:18;;;;;;;4.00;3.33;;;;;;;;;;5053136;28;20021;-59
2021/04/02 14:33:48;;;;;;;4.82;3.45;;;;;;;;;;5034498;28;20025;-59
2021/04/02 14:36:14;;;;;;;4.40;3.50;;;;;;;;;;5034534;28;20136;-59
2021/04/02 14:38:43;;;;;;;4.05;2.88;;;;;;;;;;5053366;28;20021;-60
2021/04/02 14:41:11;;;;;;;4.90;3.42;;;;;;;;;;5019137;28;20021;-60
2021/04/02 14:43:37;;;;;;;3.63;2.70;;;;;;;;;;5052846;28;20021;-59
2021/04/02 14:46:06;;;;;;;3.85;3.03;;;;;;;;;;5052311;28;20029;-60
2021/04/02 14:48:36;;;;;;;4.53;3.30;;;;;;;;;;5018298;28;20167;-60
2021/04/02 14:51:02;;;;;;;3.70;3.17;;;;;;;;;;5052557;28;20195;-59
2021/04/02 14:53:28;;;;;;;4.43;3.50;;;;;;;;;;5052712;28;20356;-59
2021/04/02 14:55:57;;;;;;;3.80;3.20;;;;;;;;;;5052623;28;20021;-59
2021/04/02 14:58:24;;;;;;;4.28;3.15;;;;;;;;;;5052160;28;20116;-60
2021/04/02 15:00:53;;;;;;;4.85;3.15;;;;;;;;;;5053129;28;20458;-59
2021/04/02 15:03:29;;;;;;;4.65;3.55;;;;;;;;;;5052494;28;20053;-59
2021/04/02 15:05:55;;;;;;;4.20;3.15;;;;;;;;;;5034104;28;20139;-59
2021/04/02 15:08:22;;;;;;;8.77;3.42;;;;;;;;;;5034526;28;20033;-59
2021/04/02 15:10:48;;;;;;;5.75;3.83;;;;;;;;;;5033986;28;20382;-60
2021/04/02 15:13:16;;;;;;;5.88;3.53;;;;;;;;;;5034538;28;20021;-59
2021/04/02 15:15:46;;;;;;;5.43;3.65;;;;;;;;;;5051648;28;20051;-59
2021/04/02 15:18:15;;;;;;;4.47;3.47;;;;;;;;;;5053685;28;20025;-59
2021/04/02 15:20:50;;;;;;;4.55;3.17;;;;;;;;;;5055938;28;20430;-59
2021/04/02 15:23:16;;;;;;;3.80;3.05;;;;;;;;;;5056247;28;20033;-59
2021/04/02 15:25:42;;;;;;;6.63;3.55;;;;;;;;;;5038398;28;20032;-60
2021/04/02 15:28:08;;;;;;;5.45;3.92;;;;;;;;;;5054988;28;20064;-58
2021/04/02 15:30:35;;;;;;;5.30;4.00;;;;;;;;;;5055720;28;20211;-57
2021/04/02 15:33:01;;;;;;;4.75;3.72;;;;;;;;;;5055801;28;20373;-58